sensor_id;sensor_type;location;lat;lon;timestamp;P1;P2;P0
20157;PMS5003;10239;56.820;24.416;2022-08-19T00:01:47;13.75;13.75;10.25
20157;PMS5003;10239;56.820;24.416;2022-08-19T00:04:20;15.25;15.25;11.25
20157;PMS5003;10239;56.820;24.416;2022-08-19T00:06:49;16.25;16.25;10.75
20157;PMS5003;10239;56.820;24.416;2022-08-19T00:09:19;13.25;13.25;11.25
20157;PMS5003;10239;56.820;24.416;2022-08-19T00:11:48;16.80;16.80;12.20
20157;PMS5003;10239;56.820;24.416;2022-08-19T00:14:17;12.75;12.75;9.00
20157;PMS5003;10239;56.820;24.416;2022-08-19T00:16:45;19.25;18.00;11.50
20157;PMS5003;10239;56.820;24.416;2022-08-19T00:19:15;12.00;12.00;7.75
20157;PMS5003;10239;56.820;24.416;2022-08-19T00:21:43;15.00;15.00;11.60
20157;PMS5003;10239;56.820;24.416;2022-08-19T00:24:12;15.75;15.75;13.25
20157;PMS5003;10239;56.820;24.416;2022-08-19T00:26:42;18.75;17.00;11.50
20157;PMS5003;10239;56.820;24.416;2022-08-19T00:29:11;11.60;11.60;7.40
20157;PMS5003;10239;56.820;24.416;2022-08-19T00:31:41;12.00;12.00;8.50
20157;PMS5003;10239;56.820;24.416;2022-08-19T00:34:10;11.40;11.40;8.60
20157;PMS5003;10239;56.820;24.416;2022-08-19T00:36:39;14.75;14.75;11.75
20157;PMS5003;10239;56.820;24.416;2022-08-19T00:39:07;15.40;15.40;9.80
20157;PMS5003;10239;56.820;24.416;2022-08-19T00:41:36;15.00;15.00;10.50
20157;PMS5003;10239;56.820;24.416;2022-08-19T00:44:06;13.50;13.50;9.50
20157;PMS5003;10239;56.820;24.416;2022-08-19T00:46:35;12.50;12.50;8.75
20157;PMS5003;10239;56.820;24.416;2022-08-19T00:49:06;21.25;16.50;9.50
20157;PMS5003;10239;56.820;24.416;2022-08-19T00:52:08;11.75;11.75;8.75
20157;PMS5003;10239;56.820;24.416;2022-08-19T00:54:59;14.20;13.00;9.00
20157;PMS5003;10239;56.820;24.416;2022-08-19T00:57:35;11.75;11.75;9.50
20157;PMS5003;10239;56.820;24.416;2022-08-19T01:00:08;14.00;14.00;10.00
20157;PMS5003;10239;56.820;24.416;2022-08-19T01:02:39;12.00;12.00;9.00
20157;PMS5003;10239;56.820;24.416;2022-08-19T01:05:13;12.75;11.75;8.25
20157;PMS5003;10239;56.820;24.416;2022-08-19T01:07:45;10.20;10.20;9.00
20157;PMS5003;10239;56.820;24.416;2022-08-19T01:10:15;13.25;13.25;9.00
20157;PMS5003;10239;56.820;24.416;2022-08-19T01:12:46;14.20;14.20;8.20
20157;PMS5003;10239;56.820;24.416;2022-08-19T01:15:16;15.20;15.20;9.40
20157;PMS5003;10239;56.820;24.416;2022-08-19T01:17:46;11.75;11.75;8.25
20157;PMS5003;10239;56.820;24.416;2022-08-19T01:20:19;12.25;12.25;7.00
20157;PMS5003;10239;56.820;24.416;2022-08-19T01:22:51;13.50;13.50;9.25
20157;PMS5003;10239;56.820;24.416;2022-08-19T01:25:22;10.00;10.00;8.00
20157;PMS5003;10239;56.820;24.416;2022-08-19T01:27:55;8.75;8.75;6.75
20157;PMS5003;10239;56.820;24.416;2022-08-19T01:30:32;11.50;11.50;8.50
20157;PMS5003;10239;56.820;24.416;2022-08-19T01:33:02;14.75;14.75;12.00
20157;PMS5003;10239;56.820;24.416;2022-08-19T01:35:32;11.40;11.40;8.60
20157;PMS5003;10239;56.820;24.416;2022-08-19T01:38:03;14.00;14.00;9.60
20157;PMS5003;10239;56.820;24.416;2022-08-19T01:40:36;13.20;13.20;9.40
20157;PMS5003;10239;56.820;24.416;2022-08-19T01:43:05;14.60;14.60;11.20
20157;PMS5003;10239;56.820;24.416;2022-08-19T01:45:33;16.75;16.75;10.50
20157;PMS5003;10239;56.820;24.416;2022-08-19T01:48:02;14.25;14.25;9.75
20157;PMS5003;10239;56.820;24.416;2022-08-19T01:50:31;13.80;13.80;11.40
20157;PMS5003;10239;56.820;24.416;2022-08-19T01:53:01;15.00;15.00;11.50
20157;PMS5003;10239;56.820;24.416;2022-08-19T01:55:34;14.25;14.25;10.50
20157;PMS5003;10239;56.820;24.416;2022-08-19T01:58:12;14.00;14.00;8.75
20157;PMS5003;10239;56.820;24.416;2022-08-19T02:00:47;13.25;13.25;9.50
20157;PMS5003;10239;56.820;24.416;2022-08-19T02:03:15;11.50;11.50;8.00
20157;PMS5003;10239;56.820;24.416;2022-08-19T02:05:43;14.25;14.25;9.50
20157;PMS5003;10239;56.820;24.416;2022-08-19T02:08:12;13.75;13.75;10.50
20157;PMS5003;10239;56.820;24.416;2022-08-19T02:10:41;11.25;11.25;8.75
20157;PMS5003;10239;56.820;24.416;2022-08-19T02:13:11;14.75;14.00;9.50
20157;PMS5003;10239;56.820;24.416;2022-08-19T02:15:40;13.50;12.50;9.25
20157;PMS5003;10239;56.820;24.416;2022-08-19T02:18:07;13.50;11.75;7.25
20157;PMS5003;10239;56.820;24.416;2022-08-19T02:20:36;15.75;15.25;10.75
20157;PMS5003;10239;56.820;24.416;2022-08-19T02:23:05;12.75;12.75;10.50
20157;PMS5003;10239;56.820;24.416;2022-08-19T02:25:42;11.75;11.75;9.50
20157;PMS5003;10239;56.820;24.416;2022-08-19T02:28:11;12.00;12.00;10.00
20157;PMS5003;10239;56.820;24.416;2022-08-19T02:30:45;14.25;14.00;10.00
20157;PMS5003;10239;56.820;24.416;2022-08-19T02:33:14;14.25;14.25;10.75
20157;PMS5003;10239;56.820;24.416;2022-08-19T02:35:42;16.00;16.00;11.75
20157;PMS5003;10239;56.820;24.416;2022-08-19T02:38:13;10.25;10.25;7.50
20157;PMS5003;10239;56.820;24.416;2022-08-19T02:40:58;12.25;12.25;9.25
20157;PMS5003;10239;56.820;24.416;2022-08-19T02:43:30;12.75;12.75;10.00
20157;PMS5003;10239;56.820;24.416;2022-08-19T02:46:00;14.25;14.25;10.25
20157;PMS5003;10239;56.820;24.416;2022-08-19T02:48:29;14.50;14.50;11.25
20157;PMS5003;10239;56.820;24.416;2022-08-19T02:50:59;14.50;14.50;8.50
20157;PMS5003;10239;56.820;24.416;2022-08-19T02:53:27;9.50;9.50;6.75
20157;PMS5003;10239;56.820;24.416;2022-08-19T02:55:55;15.50;15.50;11.00
20157;PMS5003;10239;56.820;24.416;2022-08-19T02:58:22;15.50;15.50;9.25
20157;PMS5003;10239;56.820;24.416;2022-08-19T03:00:52;9.50;9.50;6.50
20157;PMS5003;10239;56.820;24.416;2022-08-19T03:03:22;10.75;9.00;7.75
20157;PMS5003;10239;56.820;24.416;2022-08-19T03:05:50;13.50;13.50;10.00
20157;PMS5003;10239;56.820;24.416;2022-08-19T03:08:23;13.00;13.00;8.75
20157;PMS5003;10239;56.820;24.416;2022-08-19T03:10:51;16.00;16.00;10.25
20157;PMS5003;10239;56.820;24.416;2022-08-19T03:13:19;6.00;6.00;4.00
20157;PMS5003;10239;56.820;24.416;2022-08-19T03:15:48;15.75;15.75;9.50
20157;PMS5003;10239;56.820;24.416;2022-08-19T03:18:16;13.25;13.25;10.00
20157;PMS5003;10239;56.820;24.416;2022-08-19T03:20:44;10.00;10.00;7.00
20157;PMS5003;10239;56.820;24.416;2022-08-19T03:23:14;12.00;12.00;9.50
20157;PMS5003;10239;56.820;24.416;2022-08-19T03:25:46;14.75;14.75;10.50
20157;PMS5003;10239;56.820;24.416;2022-08-19T03:28:30;13.75;13.75;9.75
20157;PMS5003;10239;56.820;24.416;2022-08-19T03:31:12;12.50;12.50;8.75
20157;PMS5003;10239;56.820;24.416;2022-08-19T03:34:02;13.75;13.75;10.25
20157;PMS5003;10239;56.820;24.416;2022-08-19T03:36:33;11.25;11.25;7.50
20157;PMS5003;10239;56.820;24.416;2022-08-19T03:39:02;11.75;11.75;8.50
20157;PMS5003;10239;56.820;24.416;2022-08-19T03:41:31;11.75;10.50;8.25
20157;PMS5003;10239;56.820;24.416;2022-08-19T03:44:16;13.00;13.00;9.25
20157;PMS5003;10239;56.820;24.416;2022-08-19T03:46:51;11.75;11.75;10.25
20157;PMS5003;10239;56.820;24.416;2022-08-19T03:49:22;11.50;11.50;8.25
20157;PMS5003;10239;56.820;24.416;2022-08-19T03:51:55;10.75;9.75;6.75
20157;PMS5003;10239;56.820;24.416;2022-08-19T03:54:24;10.50;10.50;7.25
20157;PMS5003;10239;56.820;24.416;2022-08-19T03:56:53;11.75;11.75;7.50
20157;PMS5003;10239;56.820;24.416;2022-08-19T03:59:24;13.25;13.25;8.00
20157;PMS5003;10239;56.820;24.416;2022-08-19T04:01:56;12.25;12.25;8.50
20157;PMS5003;10239;56.820;24.416;2022-08-19T04:04:26;10.25;10.25;8.00
20157;PMS5003;10239;56.820;24.416;2022-08-19T04:06:55;13.50;12.00;8.50
20157;PMS5003;10239;56.820;24.416;2022-08-19T04:09:23;16.00;14.25;10.25
20157;PMS5003;10239;56.820;24.416;2022-08-19T04:11:52;12.25;12.25;9.75
20157;PMS5003;10239;56.820;24.416;2022-08-19T04:14:26;13.75;12.75;9.75
20157;PMS5003;10239;56.820;24.416;2022-08-19T04:17:00;13.50;13.50;9.50
20157;PMS5003;10239;56.820;24.416;2022-08-19T04:19:39;7.40;7.40;6.00
20157;PMS5003;10239;56.820;24.416;2022-08-19T04:22:09;10.00;10.00;8.50
20157;PMS5003;10239;56.820;24.416;2022-08-19T04:24:38;10.00;10.00;8.00
20157;PMS5003;10239;56.820;24.416;2022-08-19T04:27:09;12.25;12.25;9.00
20157;PMS5003;10239;56.820;24.416;2022-08-19T04:29:37;12.60;12.20;9.40
20157;PMS5003;10239;56.820;24.416;2022-08-19T04:32:06;8.80;8.80;6.20
20157;PMS5003;10239;56.820;24.416;2022-08-19T04:34:35;11.25;11.25;8.75
20157;PMS5003;10239;56.820;24.416;2022-08-19T04:37:24;12.20;12.20;8.40
20157;PMS5003;10239;56.820;24.416;2022-08-19T04:40:03;12.40;12.40;8.60
20157;PMS5003;10239;56.820;24.416;2022-08-19T04:42:51;10.80;10.80;8.60
20157;PMS5003;10239;56.820;24.416;2022-08-19T04:45:20;12.60;12.60;8.60
20157;PMS5003;10239;56.820;24.416;2022-08-19T04:47:48;10.40;10.40;7.60
20157;PMS5003;10239;56.820;24.416;2022-08-19T04:50:39;11.00;11.00;9.40
20157;PMS5003;10239;56.820;24.416;2022-08-19T04:53:09;10.60;10.60;8.20
20157;PMS5003;10239;56.820;24.416;2022-08-19T04:55:40;11.00;11.00;9.00
20157;PMS5003;10239;56.820;24.416;2022-08-19T04:58:08;10.60;10.60;8.00
20157;PMS5003;10239;56.820;24.416;2022-08-19T05:00:37;10.40;10.40;8.00
20157;PMS5003;10239;56.820;24.416;2022-08-19T05:03:06;8.40;8.40;6.20
20157;PMS5003;10239;56.820;24.416;2022-08-19T05:05:38;10.40;10.40;8.20
20157;PMS5003;10239;56.820;24.416;2022-08-19T05:08:11;10.40;10.40;7.00
20157;PMS5003;10239;56.820;24.416;2022-08-19T05:10:40;7.00;7.00;5.00
20157;PMS5003;10239;56.820;24.416;2022-08-19T05:13:09;7.00;7.00;6.00
20157;PMS5003;10239;56.820;24.416;2022-08-19T05:15:37;7.40;7.40;6.80
20157;PMS5003;10239;56.820;24.416;2022-08-19T05:18:05;9.40;9.40;6.40
20157;PMS5003;10239;56.820;24.416;2022-08-19T05:20:52;8.40;8.40;6.00
20157;PMS5003;10239;56.820;24.416;2022-08-19T05:23:40;8.00;8.00;6.40
20157;PMS5003;10239;56.820;24.416;2022-08-19T05:26:08;7.20;7.20;6.00
20157;PMS5003;10239;56.820;24.416;2022-08-19T05:28:37;7.80;7.80;6.00
20157;PMS5003;10239;56.820;24.416;2022-08-19T05:31:05;4.20;4.20;3.40
20157;PMS5003;10239;56.820;24.416;2022-08-19T05:33:33;9.40;9.40;7.40
20157;PMS5003;10239;56.820;24.416;2022-08-19T05:36:01;6.20;6.20;6.00
20157;PMS5003;10239;56.820;24.416;2022-08-19T05:38:30;1.00;1.00;1.00
20157;PMS5003;10239;56.820;24.416;2022-08-19T05:40:58;7.40;7.00;5.20
20157;PMS5003;10239;56.820;24.416;2022-08-19T05:43:25;7.80;7.80;6.00
20157;PMS5003;10239;56.820;24.416;2022-08-19T05:45:53;7.40;7.40;7.00
20157;PMS5003;10239;56.820;24.416;2022-08-19T05:48:22;4.40;4.40;3.40
20157;PMS5003;10239;56.820;24.416;2022-08-19T05:50:49;8.00;8.00;7.00
20157;PMS5003;10239;56.820;24.416;2022-08-19T05:53:17;6.80;6.80;5.20
20157;PMS5003;10239;56.820;24.416;2022-08-19T05:55:45;4.20;4.20;2.60
20157;PMS5003;10239;56.820;24.416;2022-08-19T05:58:13;7.60;7.60;7.40
20157;PMS5003;10239;56.820;24.416;2022-08-19T06:00:42;7.40;7.40;6.20
20157;PMS5003;10239;56.820;24.416;2022-08-19T06:03:10;7.40;7.40;6.00
20157;PMS5003;10239;56.820;24.416;2022-08-19T06:05:39;4.80;4.80;4.60
20157;PMS5003;10239;56.820;24.416;2022-08-19T06:08:15;6.80;6.80;5.20
20157;PMS5003;10239;56.820;24.416;2022-08-19T06:10:45;5.00;5.00;3.40
20157;PMS5003;10239;56.820;24.416;2022-08-19T06:13:13;6.80;5.20;5.00
20157;PMS5003;10239;56.820;24.416;2022-08-19T06:15:40;7.40;7.40;6.20
20157;PMS5003;10239;56.820;24.416;2022-08-19T06:18:11;6.60;6.60;6.00
20157;PMS5003;10239;56.820;24.416;2022-08-19T06:20:40;5.80;5.80;5.20
20157;PMS5003;10239;56.820;24.416;2022-08-19T06:23:22;5.00;5.00;4.60
20157;PMS5003;10239;56.820;24.416;2022-08-19T06:25:50;8.00;8.00;7.00
20157;PMS5003;10239;56.820;24.416;2022-08-19T06:28:18;6.80;6.80;6.00
20157;PMS5003;10239;56.820;24.416;2022-08-19T06:30:47;6.40;6.40;3.80
20157;PMS5003;10239;56.820;24.416;2022-08-19T06:33:15;7.00;7.00;6.00
20157;PMS5003;10239;56.820;24.416;2022-08-19T06:35:44;6.60;6.60;5.80
20157;PMS5003;10239;56.820;24.416;2022-08-19T06:38:12;3.40;3.40;2.00
20157;PMS5003;10239;56.820;24.416;2022-08-19T06:40:39;6.20;6.20;4.20
20157;PMS5003;10239;56.820;24.416;2022-08-19T06:43:07;6.60;6.60;5.00
20157;PMS5003;10239;56.820;24.416;2022-08-19T06:45:36;6.00;6.00;3.40
20157;PMS5003;10239;56.820;24.416;2022-08-19T06:48:05;5.80;5.80;4.00
20157;PMS5003;10239;56.820;24.416;2022-08-19T06:50:34;4.80;4.80;3.40
20157;PMS5003;10239;56.820;24.416;2022-08-19T06:53:05;7.60;7.60;5.60
20157;PMS5003;10239;56.820;24.416;2022-08-19T06:55:33;4.00;4.00;3.00
20157;PMS5003;10239;56.820;24.416;2022-08-19T06:58:02;8.00;8.00;5.20
20157;PMS5003;10239;56.820;24.416;2022-08-19T07:00:30;6.20;6.20;5.00
20157;PMS5003;10239;56.820;24.416;2022-08-19T07:02:59;7.40;7.40;4.80
20157;PMS5003;10239;56.820;24.416;2022-08-19T07:05:38;6.40;6.40;5.20
20157;PMS5003;10239;56.820;24.416;2022-08-19T07:08:12;6.40;6.40;6.00
20157;PMS5003;10239;56.820;24.416;2022-08-19T07:10:45;6.00;6.00;5.00
20157;PMS5003;10239;56.820;24.416;2022-08-19T07:13:15;7.60;7.60;5.00
20157;PMS5003;10239;56.820;24.416;2022-08-19T07:15:44;6.60;6.60;5.80
20157;PMS5003;10239;56.820;24.416;2022-08-19T07:18:13;4.80;4.80;4.20
20157;PMS5003;10239;56.820;24.416;2022-08-19T07:20:47;4.80;4.80;4.00
20157;PMS5003;10239;56.820;24.416;2022-08-19T07:23:15;6.00;6.00;4.60
20157;PMS5003;10239;56.820;24.416;2022-08-19T07:25:43;6.00;6.00;5.00
20157;PMS5003;10239;56.820;24.416;2022-08-19T07:28:19;6.00;6.00;4.40
20157;PMS5003;10239;56.820;24.416;2022-08-19T07:30:51;9.20;9.20;7.00
20157;PMS5003;10239;56.820;24.416;2022-08-19T07:33:21;6.80;6.80;5.40
20157;PMS5003;10239;56.820;24.416;2022-08-19T07:35:48;6.00;6.00;4.20
20157;PMS5003;10239;56.820;24.416;2022-08-19T07:38:16;5.80;5.80;5.40
20157;PMS5003;10239;56.820;24.416;2022-08-19T07:40:44;7.00;7.00;5.80
20157;PMS5003;10239;56.820;24.416;2022-08-19T07:43:13;9.00;9.00;7.00
20157;PMS5003;10239;56.820;24.416;2022-08-19T07:45:47;6.00;6.00;4.20
20157;PMS5003;10239;56.820;24.416;2022-08-19T07:48:15;8.80;8.80;5.40
20157;PMS5003;10239;56.820;24.416;2022-08-19T07:50:43;7.00;7.00;5.20
20157;PMS5003;10239;56.820;24.416;2022-08-19T07:53:10;5.20;5.20;4.20
20157;PMS5003;10239;56.820;24.416;2022-08-19T07:55:47;4.00;4.00;2.00
20157;PMS5003;10239;56.820;24.416;2022-08-19T07:58:18;7.20;5.40;4.20
20157;PMS5003;10239;56.820;24.416;2022-08-19T08:00:49;4.40;4.40;4.20
20157;PMS5003;10239;56.820;24.416;2022-08-19T08:03:18;5.00;5.00;3.60
20157;PMS5003;10239;56.820;24.416;2022-08-19T08:05:51;4.60;4.60;4.00
20157;PMS5003;10239;56.820;24.416;2022-08-19T08:08:42;6.00;3.40;1.80
20157;PMS5003;10239;56.820;24.416;2022-08-19T08:11:38;4.80;4.80;4.00
20157;PMS5003;10239;56.820;24.416;2022-08-19T08:14:17;5.00;5.00;4.00
20157;PMS5003;10239;56.820;24.416;2022-08-19T08:20:22;5.20;5.20;5.00
20157;PMS5003;10239;56.820;24.416;2022-08-19T08:23:03;5.40;5.40;4.80
20157;PMS5003;10239;56.820;24.416;2022-08-19T08:25:50;5.80;5.80;4.00
20157;PMS5003;10239;56.820;24.416;2022-08-19T08:28:20;4.60;4.60;4.00
20157;PMS5003;10239;56.820;24.416;2022-08-19T08:31:19;1.80;1.80;1.40
20157;PMS5003;10239;56.820;24.416;2022-08-19T08:33:55;4.00;4.00;3.40
20157;PMS5003;10239;56.820;24.416;2022-08-19T08:36:23;0.00;0.00;0.00
20157;PMS5003;10239;56.820;24.416;2022-08-19T08:38:55;3.40;3.40;3.00
20157;PMS5003;10239;56.820;24.416;2022-08-19T08:47:19;3.20;3.20;2.80
20157;PMS5003;10239;56.820;24.416;2022-08-19T08:49:54;4.80;4.80;4.40
20157;PMS5003;10239;56.820;24.416;2022-08-19T08:52:35;4.00;4.00;3.20
20157;PMS5003;10239;56.820;24.416;2022-08-19T08:55:14;0.00;0.00;0.00
20157;PMS5003;10239;56.820;24.416;2022-08-19T08:58:06;0.20;0.20;0.20
20157;PMS5003;10239;56.820;24.416;2022-08-19T09:00:42;6.60;6.60;5.00
20157;PMS5003;10239;56.820;24.416;2022-08-19T09:03:19;2.00;2.00;2.00
20157;PMS5003;10239;56.820;24.416;2022-08-19T09:06:00;5.00;5.00;3.00
20157;PMS5003;10239;56.820;24.416;2022-08-19T09:17:24;5.20;5.20;3.20
20157;PMS5003;10239;56.820;24.416;2022-08-19T09:22:41;4.00;4.00;3.20
20157;PMS5003;10239;56.820;24.416;2022-08-19T09:25:25;3.40;3.40;3.40
20157;PMS5003;10239;56.820;24.416;2022-08-19T09:28:47;4.00;4.00;3.60
20157;PMS5003;10239;56.820;24.416;2022-08-19T09:31:28;3.80;3.80;3.80
20157;PMS5003;10239;56.820;24.416;2022-08-19T09:34:21;4.00;4.00;3.00
20157;PMS5003;10239;56.820;24.416;2022-08-19T09:36:52;1.20;1.20;1.20
20157;PMS5003;10239;56.820;24.416;2022-08-19T09:39:23;3.80;3.80;2.00
20157;PMS5003;10239;56.820;24.416;2022-08-19T09:42:02;5.00;5.00;3.20
20157;PMS5003;10239;56.820;24.416;2022-08-19T09:44:46;5.00;5.00;4.00
20157;PMS5003;10239;56.820;24.416;2022-08-19T09:47:14;5.00;5.00;4.20
20157;PMS5003;10239;56.820;24.416;2022-08-19T09:49:51;3.60;3.60;3.40
20157;PMS5003;10239;56.820;24.416;2022-08-19T09:52:24;6.00;4.80;3.80
20157;PMS5003;10239;56.820;24.416;2022-08-19T09:54:58;3.20;3.20;3.00
20157;PMS5003;10239;56.820;24.416;2022-08-19T09:57:36;4.40;4.40;2.40
20157;PMS5003;10239;56.820;24.416;2022-08-19T10:00:11;4.20;4.20;3.60
20157;PMS5003;10239;56.820;24.416;2022-08-19T10:02:42;4.00;4.00;3.00
20157;PMS5003;10239;56.820;24.416;2022-08-19T10:05:11;6.00;6.00;4.40
20157;PMS5003;10239;56.820;24.416;2022-08-19T10:08:03;4.20;4.20;3.60
20157;PMS5003;10239;56.820;24.416;2022-08-19T10:10:40;4.60;4.60;4.20
20157;PMS5003;10239;56.820;24.416;2022-08-19T10:13:14;4.80;4.80;4.00
20157;PMS5003;10239;56.820;24.416;2022-08-19T10:16:05;4.00;4.00;3.00
20157;PMS5003;10239;56.820;24.416;2022-08-19T10:18:36;2.80;2.80;2.80
20157;PMS5003;10239;56.820;24.416;2022-08-19T10:21:11;4.40;4.40;4.00
20157;PMS5003;10239;56.820;24.416;2022-08-19T10:23:42;4.00;4.00;3.80
20157;PMS5003;10239;56.820;24.416;2022-08-19T10:26:13;4.20;4.20;2.60
20157;PMS5003;10239;56.820;24.416;2022-08-19T10:28:46;6.20;6.20;5.00
20157;PMS5003;10239;56.820;24.416;2022-08-19T10:31:14;5.60;5.60;4.80
20157;PMS5003;10239;56.820;24.416;2022-08-19T10:33:45;6.00;6.00;4.80
20157;PMS5003;10239;56.820;24.416;2022-08-19T10:36:20;7.00;7.00;4.00
20157;PMS5003;10239;56.820;24.416;2022-08-19T10:38:50;3.40;3.40;2.80
20157;PMS5003;10239;56.820;24.416;2022-08-19T10:41:23;7.40;6.80;5.40
20157;PMS5003;10239;56.820;24.416;2022-08-19T10:43:54;6.00;6.00;5.20
20157;PMS5003;10239;56.820;24.416;2022-08-19T10:46:31;5.00;5.00;4.00
20157;PMS5003;10239;56.820;24.416;2022-08-19T10:49:03;5.40;5.40;4.60
20157;PMS5003;10239;56.820;24.416;2022-08-19T10:51:32;5.00;5.00;4.20
20157;PMS5003;10239;56.820;24.416;2022-08-19T10:54:19;3.20;3.20;2.20
20157;PMS5003;10239;56.820;24.416;2022-08-19T10:56:57;6.60;6.60;5.20
20157;PMS5003;10239;56.820;24.416;2022-08-19T10:59:26;2.80;2.80;1.00
20157;PMS5003;10239;56.820;24.416;2022-08-19T11:02:03;6.40;6.40;5.20
20157;PMS5003;10239;56.820;24.416;2022-08-19T11:04:32;4.20;4.20;4.20
20157;PMS5003;10239;56.820;24.416;2022-08-19T11:07:02;4.00;4.00;2.00
20157;PMS5003;10239;56.820;24.416;2022-08-19T11:09:31;5.60;5.60;4.00
20157;PMS5003;10239;56.820;24.416;2022-08-19T11:12:05;3.00;3.00;2.00
20157;PMS5003;10239;56.820;24.416;2022-08-19T11:14:34;6.00;6.00;5.00
20157;PMS5003;10239;56.820;24.416;2022-08-19T11:17:02;5.40;5.40;4.40
20157;PMS5003;10239;56.820;24.416;2022-08-19T11:19:31;5.40;5.40;3.60
20157;PMS5003;10239;56.820;24.416;2022-08-19T11:22:00;5.00;5.00;3.80
20157;PMS5003;10239;56.820;24.416;2022-08-19T11:24:30;5.40;5.40;5.00
20157;PMS5003;10239;56.820;24.416;2022-08-19T11:27:03;7.40;7.40;6.40
20157;PMS5003;10239;56.820;24.416;2022-08-19T11:29:34;7.20;7.20;5.60
20157;PMS5003;10239;56.820;24.416;2022-08-19T11:32:08;7.20;7.20;5.00
20157;PMS5003;10239;56.820;24.416;2022-08-19T11:34:37;4.20;4.20;4.20
20157;PMS5003;10239;56.820;24.416;2022-08-19T11:37:08;6.60;6.60;5.20
20157;PMS5003;10239;56.820;24.416;2022-08-19T11:39:36;4.20;4.20;3.20
20157;PMS5003;10239;56.820;24.416;2022-08-19T11:42:05;5.40;5.40;4.60
20157;PMS5003;10239;56.820;24.416;2022-08-19T11:44:52;8.60;8.60;6.00
20157;PMS5003;10239;56.820;24.416;2022-08-19T11:47:21;7.80;7.80;5.60
20157;PMS5003;10239;56.820;24.416;2022-08-19T11:49:48;7.60;7.60;5.60
20157;PMS5003;10239;56.820;24.416;2022-08-19T11:52:16;5.80;5.80;5.20
20157;PMS5003;10239;56.820;24.416;2022-08-19T11:54:44;5.20;5.20;4.40
20157;PMS5003;10239;56.820;24.416;2022-08-19T11:57:12;6.60;6.60;5.40
20157;PMS5003;10239;56.820;24.416;2022-08-19T11:59:41;7.00;7.00;5.40
20157;PMS5003;10239;56.820;24.416;2022-08-19T12:02:09;6.40;6.40;4.40
20157;PMS5003;10239;56.820;24.416;2022-08-19T12:04:37;6.40;6.40;5.60
20157;PMS5003;10239;56.820;24.416;2022-08-19T12:07:05;6.20;6.20;5.00
20157;PMS5003;10239;56.820;24.416;2022-08-19T12:09:33;6.20;6.20;4.00
20157;PMS5003;10239;56.820;24.416;2022-08-19T12:12:01;7.80;7.80;5.60
20157;PMS5003;10239;56.820;24.416;2022-08-19T12:14:29;8.40;7.00;6.00
20157;PMS5003;10239;56.820;24.416;2022-08-19T12:16:58;4.80;4.80;4.00
20157;PMS5003;10239;56.820;24.416;2022-08-19T12:19:27;6.00;6.00;5.00
20157;PMS5003;10239;56.820;24.416;2022-08-19T12:21:58;6.40;6.40;5.00
20157;PMS5003;10239;56.820;24.416;2022-08-19T12:24:29;4.80;4.80;3.20
20157;PMS5003;10239;56.820;24.416;2022-08-19T12:26:58;5.40;5.40;4.40
20157;PMS5003;10239;56.820;24.416;2022-08-19T12:29:28;1.00;1.00;0.40
20157;PMS5003;10239;56.820;24.416;2022-08-19T12:31:57;6.80;6.80;5.80
20157;PMS5003;10239;56.820;24.416;2022-08-19T12:34:30;6.00;6.00;5.00
20157;PMS5003;10239;56.820;24.416;2022-08-19T12:37:00;6.60;6.60;5.00
20157;PMS5003;10239;56.820;24.416;2022-08-19T12:39:30;4.80;4.80;4.00
20157;PMS5003;10239;56.820;24.416;2022-08-19T12:42:02;5.80;5.80;5.00
20157;PMS5003;10239;56.820;24.416;2022-08-19T12:44:30;6.80;6.80;5.00
20157;PMS5003;10239;56.820;24.416;2022-08-19T12:46:59;5.60;5.60;4.00
20157;PMS5003;10239;56.820;24.416;2022-08-19T12:49:30;4.60;4.60;3.40
20157;PMS5003;10239;56.820;24.416;2022-08-19T12:52:21;5.00;5.00;4.00
20157;PMS5003;10239;56.820;24.416;2022-08-19T12:54:54;5.40;5.40;4.00
20157;PMS5003;10239;56.820;24.416;2022-08-19T12:57:23;6.80;6.80;4.80
20157;PMS5003;10239;56.820;24.416;2022-08-19T12:59:59;5.40;5.40;5.00
20157;PMS5003;10239;56.820;24.416;2022-08-19T13:02:50;5.80;5.80;4.20
20157;PMS5003;10239;56.820;24.416;2022-08-19T13:05:21;4.80;4.80;4.00
20157;PMS5003;10239;56.820;24.416;2022-08-19T13:07:51;6.00;6.00;5.00
20157;PMS5003;10239;56.820;24.416;2022-08-19T13:10:25;5.20;5.20;4.20
20157;PMS5003;10239;56.820;24.416;2022-08-19T13:12:57;4.80;4.80;4.20
20157;PMS5003;10239;56.820;24.416;2022-08-19T13:15:26;7.00;7.00;5.80
20157;PMS5003;10239;56.820;24.416;2022-08-19T13:17:55;1.60;1.60;1.40
20157;PMS5003;10239;56.820;24.416;2022-08-19T13:20:24;6.60;6.60;5.00
20157;PMS5003;10239;56.820;24.416;2022-08-19T13:22:53;5.00;5.00;4.00
20157;PMS5003;10239;56.820;24.416;2022-08-19T13:25:21;5.40;5.40;4.00
20157;PMS5003;10239;56.820;24.416;2022-08-19T13:27:49;6.60;6.60;5.40
20157;PMS5003;10239;56.820;24.416;2022-08-19T13:30:18;3.60;3.60;3.00
20157;PMS5003;10239;56.820;24.416;2022-08-19T13:33:05;6.20;6.20;3.80
20157;PMS5003;10239;56.820;24.416;2022-08-19T13:35:38;6.00;6.00;5.20
20157;PMS5003;10239;56.820;24.416;2022-08-19T13:38:17;5.40;5.40;4.60
20157;PMS5003;10239;56.820;24.416;2022-08-19T13:40:47;6.00;6.00;5.00
20157;PMS5003;10239;56.820;24.416;2022-08-19T13:43:17;6.00;6.00;5.00
20157;PMS5003;10239;56.820;24.416;2022-08-19T13:45:52;6.00;6.00;5.40
20157;PMS5003;10239;56.820;24.416;2022-08-19T13:48:24;6.00;6.00;4.20
20157;PMS5003;10239;56.820;24.416;2022-08-19T13:50:56;5.80;5.80;4.00
20157;PMS5003;10239;56.820;24.416;2022-08-19T13:53:25;6.80;6.80;5.80
20157;PMS5003;10239;56.820;24.416;2022-08-19T13:55:53;6.60;6.60;6.00
20157;PMS5003;10239;56.820;24.416;2022-08-19T13:58:21;4.00;4.00;3.60
20157;PMS5003;10239;56.820;24.416;2022-08-19T14:00:49;6.40;6.40;5.20
20157;PMS5003;10239;56.820;24.416;2022-08-19T14:03:17;6.20;6.20;4.60
20157;PMS5003;10239;56.820;24.416;2022-08-19T14:05:44;9.00;7.60;5.60
20157;PMS5003;10239;56.820;24.416;2022-08-19T14:08:13;6.60;6.60;5.80
20157;PMS5003;10239;56.820;24.416;2022-08-19T14:10:41;3.20;3.20;3.00
20157;PMS5003;10239;56.820;24.416;2022-08-19T14:13:13;6.20;6.20;5.20
20157;PMS5003;10239;56.820;24.416;2022-08-19T14:15:43;5.40;5.40;4.60
20157;PMS5003;10239;56.820;24.416;2022-08-19T14:18:11;5.20;5.20;3.00
20157;PMS5003;10239;56.820;24.416;2022-08-19T14:20:38;5.00;5.00;3.00
20157;PMS5003;10239;56.820;24.416;2022-08-19T14:23:06;5.60;5.60;4.00
20157;PMS5003;10239;56.820;24.416;2022-08-19T14:25:34;6.40;6.40;5.00
20157;PMS5003;10239;56.820;24.416;2022-08-19T14:28:01;5.00;5.00;4.20
20157;PMS5003;10239;56.820;24.416;2022-08-19T14:30:30;7.20;7.20;5.00
20157;PMS5003;10239;56.820;24.416;2022-08-19T14:33:00;8.00;8.00;6.60
20157;PMS5003;10239;56.820;24.416;2022-08-19T14:35:29;6.60;6.60;5.00
20157;PMS5003;10239;56.820;24.416;2022-08-19T14:38:02;7.00;7.00;5.00
20157;PMS5003;10239;56.820;24.416;2022-08-19T14:40:31;7.20;7.20;5.00
20157;PMS5003;10239;56.820;24.416;2022-08-19T14:43:00;5.20;5.20;5.00
20157;PMS5003;10239;56.820;24.416;2022-08-19T14:45:32;6.00;6.00;5.00
20157;PMS5003;10239;56.820;24.416;2022-08-19T14:48:06;3.00;3.00;3.00
20157;PMS5003;10239;56.820;24.416;2022-08-19T14:50:45;7.00;7.00;6.00